< < Back
Terminal Aerodrome Forecast


Current Version              Previous Versions:   1  2  3  4  5  6  7  8  9  

Terminal Aerodrome Forecast

377
FTUS42 KFFC 290533
TAFAHN
TAF
KAHN 290533Z 2906/3006 00000KT P6SM SKC
     FM291500 19005KT P6SM SKC
     FM291900 20006KT P6SM FEW040
     FM300000 00000KT P6SM SKC=

Latest METAR

534
SAUS70 KWBC 290800
MTRAHN
METAR KAHN 290751Z AUTO 00000KT 10SM CLR M02/M04 A3027 RMK AO2 SLP257
T10221039


USA.gov is the U.S. government's official web portal to all federal, state and local government web resources and services.